createdAt,value
2018-10-06T00:00:24.320Z,69.35
2018-10-06T00:01:28.544Z,68.85
2018-10-06T00:02:32.530Z,68.87
2018-10-06T00:03:36.557Z,69.29
2018-10-06T00:04:40.696Z,69.02
2018-10-06T00:05:44.795Z,69.06
2018-10-06T00:06:48.976Z,69.83
2018-10-06T00:07:53.241Z,68.99
2018-10-06T00:08:57.387Z,69.02
2018-10-06T00:10:01.487Z,69.75
2018-10-06T00:11:05.562Z,69.10
2018-10-06T00:12:09.685Z,69.38
2018-10-06T00:13:13.746Z,69.91
2018-10-06T00:14:17.899Z,69.16
2018-10-06T00:15:22.216Z,69.79
2018-10-06T00:16:26.324Z,69.04
2018-10-06T00:17:30.364Z,69.25
2018-10-06T00:18:34.563Z,69.80
2018-10-06T00:19:38.623Z,69.57
2018-10-06T00:20:42.672Z,69.11
2018-10-06T00:21:46.758Z,69.21
2018-10-06T00:22:50.952Z,69.26
2018-10-06T00:23:55.029Z,69.34
2018-10-06T00:24:59.216Z,69.15
2018-10-06T00:26:03.283Z,69.88
2018-10-06T00:27:07.468Z,69.71
2018-10-06T00:28:11.568Z,69.91
2018-10-06T00:29:15.701Z,69.87
2018-10-06T00:30:19.697Z,69.62
2018-10-06T00:31:23.744Z,69.33
2018-10-06T00:32:28.128Z,69.29
2018-10-06T00:33:32.242Z,70.05
2018-10-06T00:34:36.369Z,70.17
2018-10-06T00:35:40.688Z,70.06
2018-10-06T00:36:44.773Z,69.49
2018-10-06T00:37:48.820Z,69.66
2018-10-06T00:38:52.898Z,70.11
2018-10-06T00:39:57.352Z,70.17
2018-10-06T00:41:01.433Z,69.83
2018-10-06T00:42:05.498Z,70.15
2018-10-06T00:43:09.560Z,69.63
2018-10-06T00:44:13.638Z,70.11
2018-10-06T00:45:17.697Z,70.36
2018-10-06T00:46:21.724Z,70.42
2018-10-06T00:47:25.973Z,69.64
2018-10-06T00:48:30.052Z,69.59
2018-10-06T00:49:34.152Z,70.38
2018-10-06T00:50:38.217Z,69.66
2018-10-06T00:51:42.486Z,69.94
2018-10-06T00:52:47.024Z,70.27
2018-10-06T00:53:51.156Z,70.06
2018-10-06T00:54:55.262Z,70.26
2018-10-06T00:55:59.371Z,70.47
2018-10-06T00:57:03.538Z,70.58
2018-10-06T00:58:07.612Z,70.01
2018-10-06T00:59:11.821Z,70.67
2018-10-06T01:00:15.922Z,70.58
2018-10-06T01:01:20.068Z,70.51
2018-10-06T01:02:24.131Z,70.56
2018-10-06T01:03:28.146Z,70.28
2018-10-06T01:04:32.310Z,70.78
2018-10-06T01:05:36.357Z,70.19
2018-10-06T01:06:40.439Z,70.02
2018-10-06T01:07:44.495Z,70.64
2018-10-06T01:08:48.696Z,70.20
2018-10-06T01:09:52.902Z,70.46
2018-10-06T01:10:57.029Z,70.28
2018-10-06T01:12:01.232Z,70.90
2018-10-06T01:13:05.331Z,70.27
2018-10-06T01:14:09.637Z,70.21
2018-10-06T01:15:13.755Z,71.02
2018-10-06T01:16:17.900Z,70.93
2018-10-06T01:17:21.951Z,70.33
2018-10-06T01:18:26.038Z,71.04
2018-10-06T01:19:30.143Z,71.00
2018-10-06T01:20:34.347Z,70.99
2018-10-06T01:21:38.437Z,71.02
2018-10-06T01:22:43.282Z,70.21
2018-10-06T01:23:47.417Z,71.10
2018-10-06T01:24:51.475Z,70.54
2018-10-06T01:25:55.650Z,71.18
2018-10-06T01:26:59.741Z,70.70
2018-10-06T01:28:04.578Z,70.69
2018-10-06T01:29:08.637Z,71.42
2018-10-06T01:30:12.720Z,71.31
2018-10-06T01:31:16.922Z,70.71
2018-10-06T01:32:21.027Z,70.64
2018-10-06T01:33:25.677Z,70.74
2018-10-06T01:34:29.856Z,70.80
2018-10-06T01:35:34.001Z,70.91
2018-10-06T01:36:38.117Z,71.43
2018-10-06T01:37:42.237Z,70.68
2018-10-06T01:38:46.414Z,70.81
2018-10-06T01:39:50.532Z,70.85
2018-10-06T01:40:54.813Z,71.26
2018-10-06T01:42:00.511Z,71.17
2018-10-06T01:43:04.937Z,70.91
2018-10-06T01:44:09.034Z,71.73
2018-10-06T01:45:13.447Z,71.46
2018-10-06T01:46:17.533Z,70.97
2018-10-06T01:47:21.624Z,71.25
2018-10-06T01:48:25.793Z,71.33
2018-10-06T01:49:30.009Z,71.61
2018-10-06T01:50:34.153Z,71.01
2018-10-06T01:51:38.337Z,71.52
2018-10-06T01:52:42.473Z,71.41
2018-10-06T01:53:46.606Z,71.08
2018-10-06T01:54:50.804Z,71.61
2018-10-06T01:55:54.869Z,71.57
2018-10-06T01:56:59.030Z,71.03
2018-10-06T01:58:03.128Z,71.21
2018-10-06T01:59:07.471Z,71.43
2018-10-06T02:00:11.665Z,71.17
2018-10-06T02:01:15.798Z,71.74
2018-10-06T02:02:19.916Z,71.72
2018-10-06T02:03:24.074Z,70.98
2018-10-06T02:04:29.130Z,71.12
2018-10-06T02:05:33.192Z,71.76
2018-10-06T02:06:37.522Z,71.68
2018-10-06T02:07:41.572Z,71.31
2018-10-06T02:08:45.668Z,71.04
2018-10-06T02:09:49.792Z,70.96
2018-10-06T02:10:53.873Z,71.72
2018-10-06T02:11:58.043Z,71.71
2018-10-06T02:13:02.194Z,71.14
2018-10-06T02:14:06.372Z,71.46
2018-10-06T02:15:10.522Z,71.15
2018-10-06T02:16:14.618Z,71.81
2018-10-06T02:17:18.747Z,71.09
2018-10-06T02:18:22.892Z,71.64
2018-10-06T02:19:27.016Z,71.51
2018-10-06T02:20:31.155Z,71.53
2018-10-06T02:21:35.213Z,71.48
2018-10-06T02:22:39.370Z,71.21
2018-10-06T02:23:43.627Z,71.18
2018-10-06T02:24:54.213Z,71.23
2018-10-06T02:25:58.365Z,71.28
2018-10-06T02:27:02.454Z,71.74
2018-10-06T02:28:06.885Z,71.79
2018-10-06T02:29:11.091Z,71.39
2018-10-06T02:30:15.430Z,71.22
2018-10-06T02:31:19.552Z,71.73
2018-10-06T02:32:23.677Z,71.71
2018-10-06T02:33:27.841Z,71.47
2018-10-06T02:34:32.037Z,71.25
2018-10-06T02:35:36.180Z,71.73
2018-10-06T02:36:40.308Z,71.38
2018-10-06T02:37:44.380Z,71.30
2018-10-06T02:38:48.549Z,71.40
2018-10-06T02:39:52.991Z,71.63
2018-10-06T02:40:57.500Z,72.06
2018-10-06T02:42:01.924Z,71.35
2018-10-06T02:43:06.071Z,71.34
2018-10-06T02:44:10.117Z,71.69
2018-10-06T02:45:14.285Z,71.73
2018-10-06T02:46:18.502Z,71.54
2018-10-06T02:47:22.786Z,71.35
2018-10-06T02:48:26.826Z,71.96
2018-10-06T02:49:30.957Z,71.77
2018-10-06T02:50:34.990Z,71.43
2018-10-06T02:51:39.238Z,71.69
2018-10-06T02:52:43.316Z,71.94
2018-10-06T02:53:48.013Z,71.87
2018-10-06T02:54:52.071Z,71.88
2018-10-06T02:55:56.197Z,71.95
2018-10-06T02:57:00.301Z,71.95
2018-10-06T02:58:04.445Z,72.06
2018-10-06T02:59:08.609Z,71.01
2018-10-06T03:00:12.823Z,71.87
2018-10-06T03:01:16.932Z,71.79
2018-10-06T03:02:21.173Z,71.80
2018-10-06T03:03:25.317Z,72.25
2018-10-06T03:04:29.504Z,71.53
2018-10-06T03:05:33.707Z,72.18
2018-10-06T03:06:37.746Z,72.14
2018-10-06T03:07:42.167Z,71.61
2018-10-06T03:08:46.285Z,72.15
2018-10-06T03:09:50.420Z,71.76
2018-10-06T03:10:54.536Z,71.59
2018-10-06T03:11:58.962Z,71.75
2018-10-06T03:13:03.054Z,71.79
2018-10-06T03:14:07.340Z,72.05
2018-10-06T03:15:11.798Z,71.60
2018-10-06T03:16:15.966Z,72.22
2018-10-06T03:17:20.085Z,72.20
2018-10-06T03:18:25.133Z,72.17
2018-10-06T03:19:29.409Z,72.09
2018-10-06T03:20:33.610Z,72.15
2018-10-06T03:21:37.727Z,72.28
2018-10-06T03:22:42.690Z,71.96
2018-10-06T03:23:47.202Z,71.94
2018-10-06T03:24:51.289Z,72.21
2018-10-06T03:25:55.376Z,71.82
2018-10-06T03:26:59.480Z,72.23
2018-10-06T03:28:03.614Z,72.36
2018-10-06T03:29:07.801Z,72.24
2018-10-06T03:30:11.945Z,72.24
2018-10-06T03:31:16.241Z,71.92
2018-10-06T03:32:20.509Z,72.04
2018-10-06T03:33:24.601Z,71.68
2018-10-06T03:34:28.810Z,72.26
2018-10-06T03:35:32.997Z,72.01
2018-10-06T03:36:37.090Z,72.28
2018-10-06T03:37:41.209Z,72.29
2018-10-06T03:38:45.289Z,71.83
2018-10-06T03:39:49.444Z,71.76
2018-10-06T03:40:53.633Z,71.60
2018-10-06T03:41:58.006Z,72.03
2018-10-06T03:43:02.201Z,72.11
2018-10-06T03:44:06.313Z,71.73
2018-10-06T03:45:10.453Z,72.28
2018-10-06T03:46:14.671Z,72.30
2018-10-06T03:47:18.862Z,72.50
2018-10-06T03:48:22.939Z,72.42
2018-10-06T03:49:27.087Z,71.84
2018-10-06T03:50:31.227Z,72.23
2018-10-06T03:51:35.478Z,72.43
2018-10-06T03:52:39.712Z,72.39
2018-10-06T03:53:43.946Z,71.83
2018-10-06T03:54:48.143Z,71.79
2018-10-06T03:55:52.344Z,71.75
2018-10-06T03:56:56.672Z,71.58
2018-10-06T03:58:00.860Z,71.64
2018-10-06T03:59:04.964Z,72.26
2018-10-06T04:00:09.461Z,71.68
2018-10-06T04:01:13.634Z,71.66
2018-10-06T04:02:17.745Z,71.72
2018-10-06T04:03:22.061Z,72.15
2018-10-06T04:04:26.199Z,72.19
2018-10-06T04:05:30.455Z,71.68
2018-10-06T04:06:34.594Z,72.33
2018-10-06T04:07:38.712Z,71.88
2018-10-06T04:08:42.795Z,72.00
2018-10-06T04:09:47.033Z,71.61
2018-10-06T04:10:51.173Z,72.34
2018-10-06T04:11:55.322Z,72.33
2018-10-06T04:12:59.501Z,72.35
2018-10-06T04:14:03.695Z,71.80
2018-10-06T04:15:07.907Z,72.32
2018-10-06T04:16:12.119Z,72.33
2018-10-06T04:17:16.396Z,71.73
2018-10-06T04:18:20.477Z,72.37
2018-10-06T04:19:24.591Z,72.43
2018-10-06T04:20:29.490Z,71.72
2018-10-06T04:21:46.015Z,72.36
2018-10-06T04:22:50.130Z,72.43
2018-10-06T04:23:54.261Z,72.06
2018-10-06T04:24:58.474Z,72.35
2018-10-06T04:26:02.915Z,72.42
2018-10-06T04:27:07.026Z,71.64
2018-10-06T04:28:11.203Z,71.75
2018-10-06T04:29:15.856Z,72.48
2018-10-06T04:30:20.213Z,71.79
2018-10-06T04:31:24.268Z,72.39
2018-10-06T04:32:28.410Z,72.40
2018-10-06T04:33:32.560Z,72.12
2018-10-06T04:34:36.759Z,72.33
2018-10-06T04:35:40.864Z,72.41
2018-10-06T04:36:45.058Z,71.83
2018-10-06T04:37:49.124Z,72.49
2018-10-06T04:38:53.296Z,71.47
2018-10-06T04:39:57.333Z,72.44
2018-10-06T04:41:01.443Z,72.41
2018-10-06T04:42:05.628Z,71.87
2018-10-06T04:43:09.721Z,71.79
2018-10-06T04:44:13.831Z,72.12
2018-10-06T04:45:17.935Z,72.17
2018-10-06T04:46:22.055Z,72.30
2018-10-06T04:47:26.209Z,71.86
2018-10-06T04:48:30.434Z,71.77
2018-10-06T04:49:34.690Z,72.44
2018-10-06T04:50:38.693Z,72.47
2018-10-06T04:51:42.774Z,72.28
2018-10-06T04:52:46.908Z,72.51
2018-10-06T04:53:50.984Z,71.85
2018-10-06T04:54:55.137Z,71.92
2018-10-06T04:55:59.348Z,72.03
2018-10-06T04:57:03.433Z,72.65
2018-10-06T04:58:07.582Z,71.88
2018-10-06T04:59:11.685Z,72.44
2018-10-06T05:00:15.829Z,72.61
2018-10-06T05:01:19.920Z,72.12
2018-10-06T05:02:24.006Z,72.58
2018-10-06T05:03:28.343Z,72.55
2018-10-06T05:04:32.492Z,72.58
2018-10-06T05:05:36.731Z,72.02
2018-10-06T05:06:41.032Z,72.58
2018-10-06T05:07:45.160Z,72.13
2018-10-06T05:08:49.280Z,72.63
2018-10-06T05:09:53.808Z,72.01
2018-10-06T05:10:58.051Z,72.74
2018-10-06T05:12:02.182Z,72.61
2018-10-06T05:13:07.039Z,72.58
2018-10-06T05:14:11.099Z,72.55
2018-10-06T05:15:15.140Z,72.05
2018-10-06T05:16:19.324Z,72.77
2018-10-06T05:17:23.373Z,72.58
2018-10-06T05:18:27.541Z,71.88
2018-10-06T05:19:31.698Z,71.87
2018-10-06T05:20:35.832Z,71.89
2018-10-06T05:21:39.928Z,72.52
2018-10-06T05:22:44.017Z,72.57
2018-10-06T05:23:48.021Z,72.04
2018-10-06T05:24:52.141Z,72.58
2018-10-06T05:25:56.188Z,72.05
2018-10-06T05:27:00.307Z,72.52
2018-10-06T05:28:04.385Z,72.12
2018-10-06T05:29:08.399Z,71.89
2018-10-06T05:30:12.502Z,72.08
2018-10-06T05:31:16.653Z,72.12
2018-10-06T05:32:20.880Z,72.72
2018-10-06T05:33:24.970Z,72.08
2018-10-06T05:34:29.077Z,72.06
2018-10-06T05:35:33.186Z,72.19
2018-10-06T05:36:37.394Z,72.82
2018-10-06T05:37:41.538Z,72.28
2018-10-06T05:38:45.688Z,72.50
2018-10-06T05:39:49.877Z,72.51
2018-10-06T05:40:54.349Z,71.90
2018-10-06T05:41:58.449Z,71.75
2018-10-06T05:43:02.908Z,72.06
2018-10-06T05:44:07.097Z,72.21
2018-10-06T05:45:11.277Z,72.10
2018-10-06T05:46:15.459Z,72.60
2018-10-06T05:47:19.569Z,72.27
2018-10-06T05:48:23.790Z,72.33
2018-10-06T05:49:28.040Z,71.94
2018-10-06T05:50:32.263Z,72.11
2018-10-06T05:51:36.408Z,72.61
2018-10-06T05:52:40.493Z,72.04
2018-10-06T05:53:45.132Z,72.02
2018-10-06T05:54:49.272Z,72.61
2018-10-06T05:55:53.637Z,72.65
2018-10-06T05:56:57.796Z,72.34
2018-10-06T05:58:02.093Z,71.88
2018-10-06T05:59:06.481Z,72.18
2018-10-06T06:00:10.561Z,72.40
2018-10-06T06:01:14.651Z,72.75
2018-10-06T06:02:18.737Z,72.21
2018-10-06T06:03:22.922Z,72.59
2018-10-06T06:04:27.090Z,72.13
2018-10-06T06:05:31.237Z,72.22
2018-10-06T06:06:35.466Z,72.78
2018-10-06T06:07:39.556Z,72.92
2018-10-06T06:08:43.852Z,72.70
2018-10-06T06:09:48.003Z,72.92
2018-10-06T06:10:52.108Z,72.16
2018-10-06T06:11:56.248Z,72.83
2018-10-06T06:13:00.376Z,72.22
2018-10-06T06:14:04.467Z,72.55
2018-10-06T06:15:09.010Z,72.81
2018-10-06T06:16:13.182Z,72.19
2018-10-06T06:17:17.269Z,72.66
2018-10-06T06:18:21.388Z,72.05
2018-10-06T06:19:33.270Z,72.11
2018-10-06T06:20:39.069Z,72.26
2018-10-06T06:21:44.373Z,72.09
2018-10-06T06:22:48.592Z,72.49
2018-10-06T06:23:52.904Z,72.45
2018-10-06T06:24:57.211Z,72.65
2018-10-06T06:26:01.481Z,72.50
2018-10-06T06:27:05.584Z,72.61
2018-10-06T06:28:09.944Z,72.31
2018-10-06T06:29:14.165Z,72.49
2018-10-06T06:30:18.253Z,72.42
2018-10-06T06:31:22.533Z,72.88
2018-10-06T06:32:26.948Z,72.49
2018-10-06T06:33:31.088Z,72.02
2018-10-06T06:34:35.222Z,72.18
2018-10-06T06:35:39.440Z,72.08
2018-10-06T06:36:43.706Z,72.43
2018-10-06T06:37:47.828Z,72.31
2018-10-06T06:38:52.238Z,72.58
2018-10-06T06:39:56.393Z,72.69
2018-10-06T06:41:01.086Z,72.56
2018-10-06T06:42:05.269Z,71.80
2018-10-06T06:43:09.765Z,72.53
2018-10-06T06:44:14.056Z,72.61
2018-10-06T06:45:18.170Z,72.01
2018-10-06T06:46:22.293Z,72.50
2018-10-06T06:47:26.631Z,72.49
2018-10-06T06:48:30.828Z,71.79
2018-10-06T06:49:35.176Z,71.93
2018-10-06T06:50:39.567Z,72.16
2018-10-06T06:51:43.742Z,71.84
2018-10-06T06:52:47.897Z,72.06
2018-10-06T06:53:51.974Z,71.79
2018-10-06T06:54:56.136Z,71.90
2018-10-06T06:56:00.365Z,72.27
2018-10-06T06:57:04.493Z,71.93
2018-10-06T06:58:08.627Z,71.53
2018-10-06T06:59:12.762Z,71.52
2018-10-06T07:00:16.981Z,71.42
2018-10-06T07:01:21.137Z,71.98
2018-10-06T07:02:25.372Z,71.53
2018-10-06T07:03:29.728Z,71.47
2018-10-06T07:04:34.143Z,71.40
2018-10-06T07:05:38.364Z,71.74
2018-10-06T07:06:42.525Z,71.95
2018-10-06T07:07:47.553Z,71.37
2018-10-06T07:08:51.740Z,71.86
2018-10-06T07:09:56.052Z,71.75
2018-10-06T07:11:00.192Z,71.22
2018-10-06T07:12:04.369Z,71.64
2018-10-06T07:13:09.033Z,71.36
2018-10-06T07:14:13.228Z,71.67
2018-10-06T07:15:17.298Z,70.98
2018-10-06T07:16:21.753Z,71.09
2018-10-06T07:17:25.845Z,71.56
2018-10-06T07:18:29.948Z,71.24
2018-10-06T07:19:34.545Z,71.36
2018-10-06T07:20:38.625Z,71.25
2018-10-06T07:21:42.975Z,71.38
2018-10-06T07:22:47.069Z,71.25
2018-10-06T07:23:51.159Z,70.40
2018-10-06T07:24:55.348Z,71.14
2018-10-06T07:25:59.492Z,70.45
2018-10-06T07:27:03.747Z,70.48
2018-10-06T07:28:08.012Z,70.48
2018-10-06T07:29:12.179Z,70.95
2018-10-06T07:30:16.319Z,70.34
2018-10-06T07:31:21.066Z,70.76
2018-10-06T07:32:25.166Z,70.52
2018-10-06T07:33:29.294Z,70.82
2018-10-06T07:34:33.557Z,70.09
2018-10-06T07:35:37.603Z,70.58
2018-10-06T07:36:41.895Z,70.08
2018-10-06T07:37:46.010Z,70.61
2018-10-06T07:38:50.091Z,70.00
2018-10-06T07:39:54.142Z,70.72
2018-10-06T07:40:58.219Z,70.18
2018-10-06T07:42:02.327Z,70.15
2018-10-06T07:43:06.552Z,70.49
2018-10-06T07:44:11.096Z,69.88
2018-10-06T07:45:15.668Z,69.88
2018-10-06T07:46:19.775Z,70.52
2018-10-06T07:47:23.933Z,70.62
2018-10-06T07:48:28.038Z,69.85
2018-10-06T07:49:32.171Z,69.69
2018-10-06T07:50:36.864Z,70.44
2018-10-06T07:51:41.116Z,70.40
2018-10-06T07:52:45.305Z,69.61
2018-10-06T07:53:49.478Z,69.72
2018-10-06T07:54:53.674Z,70.33
2018-10-06T07:55:57.977Z,70.24
2018-10-06T07:57:02.182Z,70.57
2018-10-06T07:58:06.655Z,69.85
2018-10-06T07:59:11.109Z,69.84
2018-10-06T08:00:15.229Z,69.92
2018-10-06T08:01:19.498Z,70.26
2018-10-06T08:02:23.692Z,69.75
2018-10-06T08:03:28.210Z,70.35
2018-10-06T08:04:32.494Z,70.08
2018-10-06T08:05:36.669Z,70.42
2018-10-06T08:06:40.852Z,70.18
2018-10-06T08:07:45.101Z,69.61
2018-10-06T08:08:49.574Z,69.45
2018-10-06T08:09:53.826Z,70.20
2018-10-06T08:10:57.977Z,70.15
2018-10-06T08:12:02.247Z,69.47
2018-10-06T08:13:07.087Z,70.12
2018-10-06T08:14:12.410Z,69.90
2018-10-06T08:15:16.654Z,69.86
2018-10-06T08:16:20.704Z,69.47
2018-10-06T08:17:24.989Z,69.65
2018-10-06T08:18:29.181Z,70.05
2018-10-06T08:19:33.324Z,69.74
2018-10-06T08:20:38.144Z,69.45
2018-10-06T08:21:42.305Z,69.92
2018-10-06T08:22:46.385Z,69.89
2018-10-06T08:23:50.536Z,69.12
2018-10-06T08:24:54.774Z,69.81
2018-10-06T08:25:59.495Z,69.29
2018-10-06T08:27:03.605Z,69.72
2018-10-06T08:28:08.004Z,69.44
2018-10-06T08:29:12.543Z,69.08
2018-10-06T08:30:16.722Z,69.04
2018-10-06T08:31:23.345Z,69.56
2018-10-06T08:32:27.907Z,69.55
2018-10-06T08:33:32.253Z,69.52
2018-10-06T08:34:36.448Z,69.42
2018-10-06T08:35:40.572Z,69.40
2018-10-06T08:36:44.658Z,68.68
2018-10-06T08:37:48.799Z,68.62
2018-10-06T08:38:52.958Z,69.41
2018-10-06T08:39:57.239Z,69.36
2018-10-06T08:41:01.321Z,68.84
2018-10-06T08:42:05.434Z,68.59
2018-10-06T08:43:09.965Z,69.01
2018-10-06T08:44:14.330Z,68.43
2018-10-06T08:45:18.600Z,68.41
2018-10-06T08:46:22.678Z,69.02
2018-10-06T08:47:27.176Z,68.73
2018-10-06T08:48:31.411Z,68.40
2018-10-06T08:49:35.586Z,68.73
2018-10-06T08:50:40.652Z,68.33
2018-10-06T08:51:44.760Z,69.06
2018-10-06T08:52:48.893Z,68.91
2018-10-06T08:53:53.131Z,68.41
2018-10-06T08:54:57.542Z,68.54
2018-10-06T08:56:01.780Z,68.90
2018-10-06T08:57:06.178Z,68.82
2018-10-06T08:58:10.295Z,68.30
2018-10-06T08:59:14.308Z,68.38
2018-10-06T09:00:18.440Z,68.20
2018-10-06T09:01:23.059Z,68.33
2018-10-06T09:02:27.264Z,68.26
2018-10-06T09:03:31.463Z,68.03
2018-10-06T09:04:35.534Z,67.84
2018-10-06T09:05:39.576Z,68.02
2018-10-06T09:06:43.789Z,68.45
2018-10-06T09:07:47.902Z,67.70
2018-10-06T09:08:52.331Z,68.10
2018-10-06T09:09:56.387Z,68.19
2018-10-06T09:11:00.500Z,67.84
2018-10-06T09:12:04.568Z,67.88
2018-10-06T09:13:08.604Z,67.32
2018-10-06T09:14:13.033Z,67.77
2018-10-06T09:15:17.099Z,67.37
2018-10-06T09:16:21.202Z,67.57
2018-10-06T09:17:25.320Z,67.28
2018-10-06T09:18:29.451Z,67.70
2018-10-06T09:19:33.625Z,67.20
2018-10-06T09:20:37.756Z,67.51
2018-10-06T09:21:41.889Z,67.73
2018-10-06T09:22:45.963Z,67.63
2018-10-06T09:23:50.058Z,67.81
2018-10-06T09:24:54.470Z,67.35
2018-10-06T09:25:59.009Z,67.52
2018-10-06T09:27:03.130Z,67.60
2018-10-06T09:28:07.704Z,67.33
2018-10-06T09:29:11.748Z,67.08
2018-10-06T09:30:15.880Z,66.96
2018-10-06T09:31:19.941Z,67.33
2018-10-06T09:32:24.045Z,66.64
2018-10-06T09:33:28.210Z,67.35
2018-10-06T09:34:32.243Z,67.00
2018-10-06T09:35:36.518Z,67.23
2018-10-06T09:36:40.734Z,66.67
2018-10-06T09:37:44.793Z,67.15
2018-10-06T09:38:48.957Z,67.08
2018-10-06T09:39:53.126Z,67.00
2018-10-06T09:40:57.512Z,66.75
2018-10-06T09:42:01.686Z,66.87
2018-10-06T09:43:05.665Z,66.36
2018-10-06T09:44:09.843Z,66.52
2018-10-06T09:45:14.031Z,66.09
2018-10-06T09:46:18.205Z,66.60
2018-10-06T09:47:22.362Z,66.01
2018-10-06T09:48:26.384Z,65.95
2018-10-06T09:49:30.542Z,66.22
2018-10-06T09:50:34.803Z,65.97
2018-10-06T09:51:38.935Z,65.82
2018-10-06T09:52:43.114Z,66.51
2018-10-06T09:53:47.294Z,65.87
2018-10-06T09:54:51.402Z,65.92
2018-10-06T09:55:55.494Z,65.69
2018-10-06T09:56:59.628Z,65.85
2018-10-06T09:58:03.772Z,65.68
2018-10-06T09:59:08.004Z,65.66
2018-10-06T10:00:12.100Z,66.05
2018-10-06T10:01:21.590Z,65.59
2018-10-06T10:02:30.888Z,65.74
2018-10-06T10:03:40.316Z,66.03
2018-10-06T10:04:44.424Z,65.61
2018-10-06T10:05:50.684Z,65.55
2018-10-06T10:06:54.952Z,65.71
2018-10-06T10:07:59.072Z,65.46
2018-10-06T10:09:03.122Z,65.48
2018-10-06T10:10:07.732Z,65.87
2018-10-06T10:11:11.863Z,65.99
2018-10-06T10:12:15.984Z,65.54
2018-10-06T10:13:20.347Z,65.21
2018-10-06T10:14:27.523Z,65.44
2018-10-06T10:15:31.706Z,65.47
2018-10-06T10:16:35.876Z,65.33
2018-10-06T10:17:40.114Z,65.17
2018-10-06T10:18:44.115Z,65.56
2018-10-06T10:19:48.136Z,65.07
2018-10-06T10:20:52.271Z,65.61
2018-10-06T10:21:56.372Z,65.35
2018-10-06T10:23:00.694Z,65.20
2018-10-06T10:24:04.710Z,65.12
2018-10-06T10:25:08.837Z,64.91
2018-10-06T10:26:12.952Z,64.68
2018-10-06T10:27:17.111Z,64.52
2018-10-06T10:28:21.696Z,64.27
2018-10-06T10:29:25.816Z,64.50
2018-10-06T10:30:29.991Z,64.74
2018-10-06T10:31:34.156Z,64.27
2018-10-06T10:32:38.502Z,64.38
2018-10-06T10:33:43.122Z,64.08
2018-10-06T10:34:47.355Z,63.74
2018-10-06T10:35:51.476Z,63.90
2018-10-06T10:36:55.572Z,63.82
2018-10-06T10:37:59.738Z,63.82
2018-10-06T10:39:05.070Z,63.54
2018-10-06T10:40:09.232Z,63.36
2018-10-06T10:41:13.390Z,64.02
2018-10-06T10:42:17.483Z,63.81
2018-10-06T10:43:21.851Z,64.11
2018-10-06T10:44:26.070Z,63.25
2018-10-06T10:45:30.410Z,63.95
2018-10-06T10:46:34.520Z,63.19
2018-10-06T10:47:38.686Z,63.66
2018-10-06T10:48:42.830Z,63.52
2018-10-06T10:49:47.063Z,63.26
2018-10-06T10:50:51.308Z,63.68
2018-10-06T10:51:55.388Z,63.97
2018-10-06T10:52:59.521Z,63.31
2018-10-06T10:54:03.663Z,63.42
2018-10-06T10:55:07.872Z,63.01
2018-10-06T10:56:12.037Z,62.84
2018-10-06T10:57:16.206Z,62.70
2018-10-06T10:58:20.344Z,62.75
2018-10-06T10:59:24.777Z,63.23
2018-10-06T11:00:28.840Z,62.53
2018-10-06T11:01:32.897Z,62.67
2018-10-06T11:02:37.149Z,62.94
2018-10-06T11:03:41.366Z,62.98
2018-10-06T11:04:45.745Z,62.19
2018-10-06T11:05:49.773Z,62.68
2018-10-06T11:06:53.994Z,62.29
2018-10-06T11:07:58.048Z,62.67
2018-10-06T11:09:02.169Z,61.90
2018-10-06T11:10:06.621Z,61.87
2018-10-06T11:11:10.789Z,61.95
2018-10-06T11:12:14.903Z,61.71
2018-10-06T11:13:19.016Z,62.17
2018-10-06T11:14:23.116Z,61.97
2018-10-06T11:15:27.288Z,62.07
2018-10-06T11:16:31.564Z,61.85
2018-10-06T11:17:35.834Z,61.43
2018-10-06T11:18:39.898Z,61.39
2018-10-06T11:19:44.145Z,62.14
2018-10-06T11:20:48.231Z,61.86
2018-10-06T11:21:52.333Z,61.57
2018-10-06T11:22:56.628Z,61.20
2018-10-06T11:24:00.903Z,61.32
2018-10-06T11:25:05.114Z,61.35
2018-10-06T11:26:09.219Z,61.92
2018-10-06T11:27:13.410Z,61.24
2018-10-06T11:28:24.341Z,61.12
2018-10-06T11:29:28.573Z,61.49
2018-10-06T11:30:32.655Z,61.58
2018-10-06T11:31:36.913Z,61.11
2018-10-06T11:32:41.059Z,60.86
2018-10-06T11:33:45.500Z,61.09
2018-10-06T11:34:49.607Z,61.10
2018-10-06T11:35:53.866Z,61.10
2018-10-06T11:36:58.002Z,60.89
2018-10-06T11:38:02.150Z,60.67
2018-10-06T11:39:07.906Z,60.89
2018-10-06T11:42:41.266Z,60.99
2018-10-06T11:43:45.342Z,60.39
2018-10-06T11:44:49.455Z,60.65
2018-10-06T11:45:53.693Z,61.00
2018-10-06T11:46:57.853Z,60.59
2018-10-06T11:48:02.028Z,61.09
2018-10-06T11:49:06.202Z,60.51
2018-10-06T11:50:10.467Z,60.72
2018-10-06T11:51:14.591Z,59.99
2018-10-06T11:52:18.675Z,60.26
2018-10-06T11:53:22.886Z,60.79
2018-10-06T11:54:26.908Z,60.36
2018-10-06T11:55:30.969Z,59.95
2018-10-06T11:56:34.967Z,60.09
2018-10-06T11:57:39.124Z,60.62
2018-10-06T11:58:43.213Z,59.81
2018-10-06T11:59:47.403Z,60.00
2018-10-06T12:00:51.695Z,59.79
2018-10-06T12:01:55.975Z,60.35
2018-10-06T12:03:00.125Z,59.94
2018-10-06T12:04:04.337Z,59.61
2018-10-06T12:05:08.446Z,59.67
2018-10-06T12:06:12.567Z,59.51
2018-10-06T12:07:16.705Z,59.56
2018-10-06T12:08:20.817Z,60.11
2018-10-06T12:09:25.038Z,59.68
2018-10-06T12:10:35.715Z,59.29
2018-10-06T12:11:40.728Z,59.60
2018-10-06T12:12:44.834Z,58.77
2018-10-06T12:13:49.002Z,59.06
2018-10-06T12:14:53.179Z,58.80
2018-10-06T12:15:57.378Z,58.68
2018-10-06T12:17:01.534Z,58.69
2018-10-06T12:18:05.619Z,58.54
2018-10-06T12:19:09.796Z,59.27
2018-10-06T12:20:14.022Z,58.75
2018-10-06T12:21:18.093Z,59.15
2018-10-06T12:22:22.345Z,59.09
2018-10-06T12:23:26.417Z,58.27
2018-10-06T12:24:30.523Z,58.88
2018-10-06T12:25:34.791Z,58.71
2018-10-06T12:26:38.858Z,58.12
2018-10-06T12:27:42.983Z,58.08
2018-10-06T12:28:46.999Z,57.90
2018-10-06T12:29:51.156Z,57.97
2018-10-06T12:30:55.392Z,57.62
2018-10-06T12:31:59.688Z,57.78
2018-10-06T12:33:04.000Z,58.47
2018-10-06T12:34:08.200Z,57.65
2018-10-06T12:35:12.305Z,58.13
2018-10-06T12:36:16.742Z,57.88
2018-10-06T12:37:20.832Z,57.96
2018-10-06T12:38:24.952Z,57.44
2018-10-06T12:39:29.075Z,57.76
2018-10-06T12:40:33.250Z,57.46
2018-10-06T12:41:37.282Z,57.89
2018-10-06T12:42:41.381Z,58.06
2018-10-06T12:43:45.483Z,58.07
2018-10-06T12:44:49.586Z,57.49
2018-10-06T12:45:53.875Z,57.90
2018-10-06T12:46:58.802Z,57.66
2018-10-06T12:48:02.841Z,56.38
2018-10-06T12:49:06.960Z,56.18
2018-10-06T12:50:11.033Z,55.81
2018-10-06T12:51:15.079Z,55.60
2018-10-06T12:52:19.148Z,54.70
2018-10-06T12:53:23.251Z,54.83
2018-10-06T12:54:27.324Z,54.16
2018-10-06T12:55:31.693Z,54.50
2018-10-06T12:56:36.555Z,54.77
2018-10-06T12:57:40.771Z,54.74
2018-10-06T12:58:44.816Z,54.11
2018-10-06T12:59:48.983Z,54.44
2018-10-06T13:00:53.098Z,53.77
2018-10-06T13:01:57.257Z,53.72
2018-10-06T13:03:01.797Z,54.14
2018-10-06T13:04:06.100Z,53.64
2018-10-06T13:05:10.494Z,54.27
2018-10-06T13:06:14.925Z,53.44
2018-10-06T13:07:19.096Z,53.35
2018-10-06T13:08:23.342Z,53.31
2018-10-06T13:09:27.557Z,53.73
2018-10-06T13:10:31.610Z,53.17
2018-10-06T13:11:35.723Z,53.04
2018-10-06T13:12:40.047Z,52.84
2018-10-06T13:13:44.218Z,52.75
2018-10-06T13:14:48.343Z,52.00
2018-10-06T13:15:52.612Z,52.00
2018-10-06T13:16:56.760Z,52.64
2018-10-06T13:18:01.035Z,51.75
2018-10-06T13:19:05.203Z,52.59
2018-10-06T13:20:09.737Z,52.17
2018-10-06T13:21:13.876Z,52.14
2018-10-06T13:22:17.916Z,51.79
2018-10-06T13:23:22.387Z,51.70
2018-10-06T13:24:26.584Z,51.66
2018-10-06T13:25:30.570Z,51.71
2018-10-06T13:26:34.588Z,51.76
2018-10-06T13:27:38.777Z,51.65
2018-10-06T13:28:42.921Z,52.25
2018-10-06T13:29:47.210Z,51.96
2018-10-06T13:30:51.356Z,51.81
2018-10-06T13:31:55.486Z,51.46
2018-10-06T13:32:59.641Z,51.93
2018-10-06T13:34:03.818Z,51.57
2018-10-06T13:35:08.867Z,51.40
2018-10-06T13:36:12.979Z,51.27
2018-10-06T13:37:17.060Z,51.28
2018-10-06T13:38:21.151Z,51.23
2018-10-06T13:39:25.321Z,51.54
2018-10-06T13:40:29.985Z,51.64
2018-10-06T13:41:34.095Z,51.56
2018-10-06T13:42:38.140Z,51.58
2018-10-06T13:43:42.338Z,51.19
2018-10-06T13:44:46.693Z,50.74
2018-10-06T13:45:50.805Z,50.88
2018-10-06T13:46:55.230Z,51.33
2018-10-06T13:47:59.276Z,50.60
2018-10-06T13:49:03.440Z,50.86
2018-10-06T13:50:07.595Z,51.26